sensor_id;sensor_type;location;lat;lon;timestamp;temperature;humidity
43015;DHT22;28637;50.554;7.032;2024-01-10T00:03:51;-6.50;99.90
43015;DHT22;28637;50.554;7.032;2024-01-10T00:08:53;-6.40;99.90
43015;DHT22;28637;50.554;7.032;2024-01-10T00:13:54;-6.40;99.90
43015;DHT22;28637;50.554;7.032;2024-01-10T00:19:00;-6.40;99.90
43015;DHT22;28637;50.554;7.032;2024-01-10T00:24:01;-6.40;99.90
43015;DHT22;28637;50.554;7.032;2024-01-10T00:29:01;-6.40;99.90
43015;DHT22;28637;50.554;7.032;2024-01-10T00:34:02;-6.30;99.90
43015;DHT22;28637;50.554;7.032;2024-01-10T00:39:03;-6.30;99.90
43015;DHT22;28637;50.554;7.032;2024-01-10T00:44:04;-6.30;99.90
43015;DHT22;28637;50.554;7.032;2024-01-10T00:49:05;-6.20;99.90
43015;DHT22;28637;50.554;7.032;2024-01-10T00:54:05;-6.10;99.90
43015;DHT22;28637;50.554;7.032;2024-01-10T00:59:06;-6.10;99.90
43015;DHT22;28637;50.554;7.032;2024-01-10T01:04:07;-6.20;99.90
43015;DHT22;28637;50.554;7.032;2024-01-10T01:09:07;-6.20;99.90
43015;DHT22;28637;50.554;7.032;2024-01-10T01:14:08;-6.20;99.90
43015;DHT22;28637;50.554;7.032;2024-01-10T01:19:09;-6.20;99.90
43015;DHT22;28637;50.554;7.032;2024-01-10T01:24:10;-6.20;99.90
43015;DHT22;28637;50.554;7.032;2024-01-10T01:29:11;-6.20;99.90
43015;DHT22;28637;50.554;7.032;2024-01-10T01:34:12;-6.20;99.90
43015;DHT22;28637;50.554;7.032;2024-01-10T01:39:13;-6.10;99.90
43015;DHT22;28637;50.554;7.032;2024-01-10T01:44:16;-6.10;99.90
43015;DHT22;28637;50.554;7.032;2024-01-10T01:49:17;-6.10;99.90
43015;DHT22;28637;50.554;7.032;2024-01-10T01:54:18;-6.10;99.90
43015;DHT22;28637;50.554;7.032;2024-01-10T01:59:20;-6.00;99.90
43015;DHT22;28637;50.554;7.032;2024-01-10T02:04:20;-6.00;99.90
43015;DHT22;28637;50.554;7.032;2024-01-10T02:09:21;-6.00;99.90
43015;DHT22;28637;50.554;7.032;2024-01-10T02:14:22;-6.10;99.90
43015;DHT22;28637;50.554;7.032;2024-01-10T02:19:24;-6.10;99.90
43015;DHT22;28637;50.554;7.032;2024-01-10T02:24:24;-6.10;99.90
43015;DHT22;28637;50.554;7.032;2024-01-10T02:29:26;-6.10;99.90
43015;DHT22;28637;50.554;7.032;2024-01-10T02:34:26;-6.20;99.90
43015;DHT22;28637;50.554;7.032;2024-01-10T02:39:27;-6.10;99.90
43015;DHT22;28637;50.554;7.032;2024-01-10T02:44:27;-6.10;99.90
43015;DHT22;28637;50.554;7.032;2024-01-10T02:49:28;-6.20;99.90
43015;DHT22;28637;50.554;7.032;2024-01-10T02:54:29;-6.20;99.90
43015;DHT22;28637;50.554;7.032;2024-01-10T02:59:30;-6.20;99.90
43015;DHT22;28637;50.554;7.032;2024-01-10T03:04:30;-6.20;99.90
43015;DHT22;28637;50.554;7.032;2024-01-10T03:09:31;-6.20;99.90
43015;DHT22;28637;50.554;7.032;2024-01-10T03:14:32;-6.20;99.90
43015;DHT22;28637;50.554;7.032;2024-01-10T03:19:33;-6.10;99.90
43015;DHT22;28637;50.554;7.032;2024-01-10T03:24:34;-6.20;99.90
43015;DHT22;28637;50.554;7.032;2024-01-10T03:29:34;-6.10;99.90
43015;DHT22;28637;50.554;7.032;2024-01-10T03:34:35;-6.10;99.90
43015;DHT22;28637;50.554;7.032;2024-01-10T03:39:36;-6.10;99.90
43015;DHT22;28637;50.554;7.032;2024-01-10T03:44:36;-6.20;99.90
43015;DHT22;28637;50.554;7.032;2024-01-10T03:49:37;-6.20;99.90
43015;DHT22;28637;50.554;7.032;2024-01-10T03:54:39;-6.30;99.90
43015;DHT22;28637;50.554;7.032;2024-01-10T03:59:41;-6.30;99.90
43015;DHT22;28637;50.554;7.032;2024-01-10T04:04:41;-6.30;99.90
43015;DHT22;28637;50.554;7.032;2024-01-10T04:09:42;-6.30;99.90
43015;DHT22;28637;50.554;7.032;2024-01-10T04:14:43;-6.30;99.90
43015;DHT22;28637;50.554;7.032;2024-01-10T04:19:43;-6.30;99.90
43015;DHT22;28637;50.554;7.032;2024-01-10T04:24:44;-6.20;99.90
43015;DHT22;28637;50.554;7.032;2024-01-10T04:29:45;-6.30;99.90
43015;DHT22;28637;50.554;7.032;2024-01-10T04:34:45;-6.20;99.90
43015;DHT22;28637;50.554;7.032;2024-01-10T04:39:46;-6.20;99.90
43015;DHT22;28637;50.554;7.032;2024-01-10T04:44:47;-6.10;99.90
43015;DHT22;28637;50.554;7.032;2024-01-10T04:49:48;-6.10;99.90
43015;DHT22;28637;50.554;7.032;2024-01-10T04:54:48;-6.10;99.90
43015;DHT22;28637;50.554;7.032;2024-01-10T04:59:50;-6.10;99.90
43015;DHT22;28637;50.554;7.032;2024-01-10T05:04:51;-6.10;99.90
43015;DHT22;28637;50.554;7.032;2024-01-10T05:09:51;-6.10;99.90
43015;DHT22;28637;50.554;7.032;2024-01-10T05:14:52;-6.10;99.90
43015;DHT22;28637;50.554;7.032;2024-01-10T05:19:53;-6.20;99.90
43015;DHT22;28637;50.554;7.032;2024-01-10T05:24:53;-6.20;99.90
43015;DHT22;28637;50.554;7.032;2024-01-10T05:29:54;-6.20;99.90
43015;DHT22;28637;50.554;7.032;2024-01-10T05:34:55;-6.10;99.90
43015;DHT22;28637;50.554;7.032;2024-01-10T05:39:55;-6.00;99.90
43015;DHT22;28637;50.554;7.032;2024-01-10T05:44:56;-5.90;99.90
43015;DHT22;28637;50.554;7.032;2024-01-10T05:49:57;-5.80;99.90
43015;DHT22;28637;50.554;7.032;2024-01-10T05:54:57;-5.80;99.90
43015;DHT22;28637;50.554;7.032;2024-01-10T05:59:59;-5.70;99.90
43015;DHT22;28637;50.554;7.032;2024-01-10T06:05:00;-5.70;99.90
43015;DHT22;28637;50.554;7.032;2024-01-10T06:10:00;-5.70;99.90
43015;DHT22;28637;50.554;7.032;2024-01-10T06:15:03;-5.70;99.90
43015;DHT22;28637;50.554;7.032;2024-01-10T06:20:05;-5.70;99.90
43015;DHT22;28637;50.554;7.032;2024-01-10T06:25:07;-5.80;99.90
43015;DHT22;28637;50.554;7.032;2024-01-10T06:30:08;-5.80;99.90
43015;DHT22;28637;50.554;7.032;2024-01-10T06:35:09;-5.80;99.90
43015;DHT22;28637;50.554;7.032;2024-01-10T06:40:10;-5.80;99.90
43015;DHT22;28637;50.554;7.032;2024-01-10T06:45:11;-5.80;99.90
43015;DHT22;28637;50.554;7.032;2024-01-10T06:50:12;-5.90;99.90
43015;DHT22;28637;50.554;7.032;2024-01-10T06:55:13;-5.90;99.90
43015;DHT22;28637;50.554;7.032;2024-01-10T07:00:14;-5.90;99.90
43015;DHT22;28637;50.554;7.032;2024-01-10T07:05:15;-6.00;99.90
43015;DHT22;28637;50.554;7.032;2024-01-10T07:10:16;-6.00;99.90
43015;DHT22;28637;50.554;7.032;2024-01-10T07:15:17;-6.00;99.90
43015;DHT22;28637;50.554;7.032;2024-01-10T07:20:18;-6.00;99.90
43015;DHT22;28637;50.554;7.032;2024-01-10T07:25:18;-6.00;99.90
43015;DHT22;28637;50.554;7.032;2024-01-10T07:30:19;-6.00;99.90
43015;DHT22;28637;50.554;7.032;2024-01-10T07:35:20;-5.90;99.90
43015;DHT22;28637;50.554;7.032;2024-01-10T07:40:21;-5.80;99.90
43015;DHT22;28637;50.554;7.032;2024-01-10T07:45:22;-5.80;99.90
43015;DHT22;28637;50.554;7.032;2024-01-10T07:50:23;-5.80;99.90
43015;DHT22;28637;50.554;7.032;2024-01-10T07:55:27;-5.80;99.90
43015;DHT22;28637;50.554;7.032;2024-01-10T08:00:31;-5.70;99.90
43015;DHT22;28637;50.554;7.032;2024-01-10T08:05:31;-5.60;99.90
43015;DHT22;28637;50.554;7.032;2024-01-10T08:10:33;-5.60;99.90
43015;DHT22;28637;50.554;7.032;2024-01-10T08:15:35;-5.50;99.90
43015;DHT22;28637;50.554;7.032;2024-01-10T08:20:35;-5.40;99.90
43015;DHT22;28637;50.554;7.032;2024-01-10T08:25:36;-5.30;99.90
43015;DHT22;28637;50.554;7.032;2024-01-10T08:30:37;-5.10;99.90
43015;DHT22;28637;50.554;7.032;2024-01-10T08:35:37;-4.90;99.90
43015;DHT22;28637;50.554;7.032;2024-01-10T08:40:39;-4.70;99.90
43015;DHT22;28637;50.554;7.032;2024-01-10T08:45:40;-4.40;99.90
43015;DHT22;28637;50.554;7.032;2024-01-10T08:50:40;-4.20;99.90
43015;DHT22;28637;50.554;7.032;2024-01-10T08:55:42;-4.00;99.90
43015;DHT22;28637;50.554;7.032;2024-01-10T09:00:43;-3.80;99.90
43015;DHT22;28637;50.554;7.032;2024-01-10T09:05:43;-3.60;99.90
43015;DHT22;28637;50.554;7.032;2024-01-10T09:10:44;-3.40;99.90
43015;DHT22;28637;50.554;7.032;2024-01-10T09:15:44;-3.20;99.90
43015;DHT22;28637;50.554;7.032;2024-01-10T09:20:45;-3.00;99.90
43015;DHT22;28637;50.554;7.032;2024-01-10T09:25:46;-2.80;99.90
43015;DHT22;28637;50.554;7.032;2024-01-10T09:30:46;-2.70;99.90
43015;DHT22;28637;50.554;7.032;2024-01-10T09:35:48;-2.50;99.90
43015;DHT22;28637;50.554;7.032;2024-01-10T09:40:48;-2.40;99.90
43015;DHT22;28637;50.554;7.032;2024-01-10T09:45:50;-2.20;99.90
43015;DHT22;28637;50.554;7.032;2024-01-10T09:50:52;-2.10;99.90
43015;DHT22;28637;50.554;7.032;2024-01-10T09:55:53;-2.00;99.90
43015;DHT22;28637;50.554;7.032;2024-01-10T10:00:57;-1.90;99.90
43015;DHT22;28637;50.554;7.032;2024-01-10T10:05:58;-1.80;99.90
43015;DHT22;28637;50.554;7.032;2024-01-10T10:10:58;-1.70;99.90
43015;DHT22;28637;50.554;7.032;2024-01-10T10:16:01;-1.60;99.90
43015;DHT22;28637;50.554;7.032;2024-01-10T10:21:12;-1.50;99.90
43015;DHT22;28637;50.554;7.032;2024-01-10T10:26:17;-1.50;99.90
43015;DHT22;28637;50.554;7.032;2024-01-10T10:31:22;-1.40;99.90
43015;DHT22;28637;50.554;7.032;2024-01-10T10:36:24;-1.40;99.90
43015;DHT22;28637;50.554;7.032;2024-01-10T10:41:25;-1.30;99.90
43015;DHT22;28637;50.554;7.032;2024-01-10T10:46:27;-1.30;99.90
43015;DHT22;28637;50.554;7.032;2024-01-10T10:51:33;-1.20;99.90
43015;DHT22;28637;50.554;7.032;2024-01-10T10:56:38;-1.10;99.90
43015;DHT22;28637;50.554;7.032;2024-01-10T11:01:41;-1.10;99.90
43015;DHT22;28637;50.554;7.032;2024-01-10T11:06:42;-0.90;99.90
43015;DHT22;28637;50.554;7.032;2024-01-10T11:22:43;-0.10;99.90
43015;DHT22;28637;50.554;7.032;2024-01-10T11:27:43;0.30;99.90
43015;DHT22;28637;50.554;7.032;2024-01-10T11:32:44;0.40;99.90
43015;DHT22;28637;50.554;7.032;2024-01-10T11:37:46;0.50;99.90
43015;DHT22;28637;50.554;7.032;2024-01-10T11:42:51;0.40;99.90
43015;DHT22;28637;50.554;7.032;2024-01-10T11:47:52;0.30;99.90
43015;DHT22;28637;50.554;7.032;2024-01-10T11:52:54;0.40;99.90
43015;DHT22;28637;50.554;7.032;2024-01-10T11:58:10;0.20;99.90
43015;DHT22;28637;50.554;7.032;2024-01-10T12:03:14;0.10;99.90
43015;DHT22;28637;50.554;7.032;2024-01-10T12:08:15;0.20;99.90
43015;DHT22;28637;50.554;7.032;2024-01-10T12:13:16;0.20;99.90
43015;DHT22;28637;50.554;7.032;2024-01-10T12:18:16;0.20;99.90
43015;DHT22;28637;50.554;7.032;2024-01-10T12:23:17;0.40;99.90
43015;DHT22;28637;50.554;7.032;2024-01-10T12:28:18;0.60;99.90
43015;DHT22;28637;50.554;7.032;2024-01-10T12:33:22;0.70;99.90
43015;DHT22;28637;50.554;7.032;2024-01-10T12:38:24;1.00;99.90
43015;DHT22;28637;50.554;7.032;2024-01-10T12:43:27;1.20;99.90
43015;DHT22;28637;50.554;7.032;2024-01-10T12:48:27;1.20;99.90
43015;DHT22;28637;50.554;7.032;2024-01-10T12:53:28;1.30;99.90
43015;DHT22;28637;50.554;7.032;2024-01-10T12:58:29;1.50;99.90
43015;DHT22;28637;50.554;7.032;2024-01-10T13:03:30;1.80;99.10
43015;DHT22;28637;50.554;7.032;2024-01-10T13:08:31;1.70;99.10
43015;DHT22;28637;50.554;7.032;2024-01-10T13:13:32;1.40;99.00
43015;DHT22;28637;50.554;7.032;2024-01-10T13:18:33;2.30;98.80
43015;DHT22;28637;50.554;7.032;2024-01-10T13:23:34;4.70;96.30
43015;DHT22;28637;50.554;7.032;2024-01-10T13:28:35;7.20;93.50
43015;DHT22;28637;50.554;7.032;2024-01-10T13:33:36;9.20;89.10
43015;DHT22;28637;50.554;7.032;2024-01-10T13:38:37;10.00;82.00
43015;DHT22;28637;50.554;7.032;2024-01-10T13:43:38;10.60;77.30
43015;DHT22;28637;50.554;7.032;2024-01-10T13:48:40;11.40;73.70
43015;DHT22;28637;50.554;7.032;2024-01-10T13:53:42;12.10;69.50
43015;DHT22;28637;50.554;7.032;2024-01-10T13:58:42;12.00;68.80
43015;DHT22;28637;50.554;7.032;2024-01-10T14:03:43;11.70;68.40
43015;DHT22;28637;50.554;7.032;2024-01-10T14:08:44;11.00;68.70
43015;DHT22;28637;50.554;7.032;2024-01-10T14:13:47;10.40;69.00
43015;DHT22;28637;50.554;7.032;2024-01-10T14:18:47;10.00;69.40
43015;DHT22;28637;50.554;7.032;2024-01-10T14:23:48;9.90;69.50
43015;DHT22;28637;50.554;7.032;2024-01-10T14:28:49;9.80;69.50
43015;DHT22;28637;50.554;7.032;2024-01-10T14:33:53;9.10;69.50
43015;DHT22;28637;50.554;7.032;2024-01-10T14:38:54;8.50;70.20
43015;DHT22;28637;50.554;7.032;2024-01-10T14:43:55;7.30;71.40
43015;DHT22;28637;50.554;7.032;2024-01-10T14:48:57;6.40;73.40
43015;DHT22;28637;50.554;7.032;2024-01-10T14:53:57;6.00;74.80
43015;DHT22;28637;50.554;7.032;2024-01-10T14:58:58;5.90;75.50
43015;DHT22;28637;50.554;7.032;2024-01-10T15:03:59;6.60;75.00
43015;DHT22;28637;50.554;7.032;2024-01-10T15:09:00;6.80;73.70
43015;DHT22;28637;50.554;7.032;2024-01-10T15:14:01;6.00;74.70
43015;DHT22;28637;50.554;7.032;2024-01-10T15:19:02;5.20;76.20
43015;DHT22;28637;50.554;7.032;2024-01-10T15:24:02;3.90;79.00
43015;DHT22;28637;50.554;7.032;2024-01-10T15:29:04;3.00;81.40
43015;DHT22;28637;50.554;7.032;2024-01-10T15:34:04;2.30;83.60
43015;DHT22;28637;50.554;7.032;2024-01-10T15:39:05;1.80;85.30
43015;DHT22;28637;50.554;7.032;2024-01-10T15:44:06;1.30;86.50
43015;DHT22;28637;50.554;7.032;2024-01-10T15:49:08;1.00;88.00
43015;DHT22;28637;50.554;7.032;2024-01-10T15:54:09;0.70;89.00
43015;DHT22;28637;50.554;7.032;2024-01-10T15:59:09;0.50;90.20
43015;DHT22;28637;50.554;7.032;2024-01-10T16:04:11;0.30;90.80
43015;DHT22;28637;50.554;7.032;2024-01-10T16:09:11;0.10;91.20
43015;DHT22;28637;50.554;7.032;2024-01-10T16:14:12;-0.10;91.90
43015;DHT22;28637;50.554;7.032;2024-01-10T16:19:13;-0.30;92.80
43015;DHT22;28637;50.554;7.032;2024-01-10T16:24:14;-0.80;95.20
43015;DHT22;28637;50.554;7.032;2024-01-10T16:29:15;-1.40;96.90
43015;DHT22;28637;50.554;7.032;2024-01-10T16:34:18;-1.60;98.10
43015;DHT22;28637;50.554;7.032;2024-01-10T16:39:18;-1.90;99.70
43015;DHT22;28637;50.554;7.032;2024-01-10T16:44:19;-2.20;99.90
43015;DHT22;28637;50.554;7.032;2024-01-10T16:49:20;-2.30;99.90
43015;DHT22;28637;50.554;7.032;2024-01-10T16:54:21;-2.60;99.90
43015;DHT22;28637;50.554;7.032;2024-01-10T16:59:22;-2.70;99.90
43015;DHT22;28637;50.554;7.032;2024-01-10T17:04:23;-2.90;99.90
43015;DHT22;28637;50.554;7.032;2024-01-10T17:09:24;-3.00;99.90
43015;DHT22;28637;50.554;7.032;2024-01-10T17:14:25;-3.20;99.90
43015;DHT22;28637;50.554;7.032;2024-01-10T17:19:26;-3.30;99.90
43015;DHT22;28637;50.554;7.032;2024-01-10T17:24:26;-3.40;99.90
43015;DHT22;28637;50.554;7.032;2024-01-10T17:29:27;-3.50;99.90
43015;DHT22;28637;50.554;7.032;2024-01-10T17:34:27;-3.50;99.90
43015;DHT22;28637;50.554;7.032;2024-01-10T17:39:29;-3.50;99.90
43015;DHT22;28637;50.554;7.032;2024-01-10T17:44:30;-3.50;99.90
43015;DHT22;28637;50.554;7.032;2024-01-10T17:49:31;-3.60;99.90
43015;DHT22;28637;50.554;7.032;2024-01-10T17:54:32;-3.60;99.90
43015;DHT22;28637;50.554;7.032;2024-01-10T17:59:32;-3.70;99.90
43015;DHT22;28637;50.554;7.032;2024-01-10T18:04:33;-3.70;99.90
43015;DHT22;28637;50.554;7.032;2024-01-10T18:09:33;-3.80;99.90
43015;DHT22;28637;50.554;7.032;2024-01-10T18:14:34;-3.90;99.90
43015;DHT22;28637;50.554;7.032;2024-01-10T18:19:35;-3.90;99.90
43015;DHT22;28637;50.554;7.032;2024-01-10T18:24:36;-3.90;99.90
43015;DHT22;28637;50.554;7.032;2024-01-10T18:29:36;-3.90;99.90
43015;DHT22;28637;50.554;7.032;2024-01-10T18:34:37;-3.90;99.90
43015;DHT22;28637;50.554;7.032;2024-01-10T18:39:38;-4.00;99.90
43015;DHT22;28637;50.554;7.032;2024-01-10T18:44:39;-4.00;99.90
43015;DHT22;28637;50.554;7.032;2024-01-10T18:49:39;-4.00;99.90
43015;DHT22;28637;50.554;7.032;2024-01-10T18:54:41;-4.00;99.90
43015;DHT22;28637;50.554;7.032;2024-01-10T18:59:42;-4.10;99.90
43015;DHT22;28637;50.554;7.032;2024-01-10T19:04:42;-4.10;99.90
43015;DHT22;28637;50.554;7.032;2024-01-10T19:09:43;-4.20;99.90
43015;DHT22;28637;50.554;7.032;2024-01-10T19:14:44;-4.20;99.90
43015;DHT22;28637;50.554;7.032;2024-01-10T19:19:45;-4.20;99.90
43015;DHT22;28637;50.554;7.032;2024-01-10T19:24:45;-4.30;99.90
43015;DHT22;28637;50.554;7.032;2024-01-10T19:29:46;-4.20;99.90
43015;DHT22;28637;50.554;7.032;2024-01-10T19:34:47;-4.10;99.90
43015;DHT22;28637;50.554;7.032;2024-01-10T19:39:48;-4.20;99.90
43015;DHT22;28637;50.554;7.032;2024-01-10T19:44:50;-4.30;99.90
43015;DHT22;28637;50.554;7.032;2024-01-10T19:49:51;-4.40;99.90
43015;DHT22;28637;50.554;7.032;2024-01-10T19:54:52;-4.50;99.90
43015;DHT22;28637;50.554;7.032;2024-01-10T19:59:52;-4.50;99.90
43015;DHT22;28637;50.554;7.032;2024-01-10T20:04:53;-4.60;99.90
43015;DHT22;28637;50.554;7.032;2024-01-10T20:09:54;-4.60;99.90
43015;DHT22;28637;50.554;7.032;2024-01-10T20:14:55;-4.60;99.90
43015;DHT22;28637;50.554;7.032;2024-01-10T20:19:56;-4.60;99.90
43015;DHT22;28637;50.554;7.032;2024-01-10T20:24:59;-4.60;99.90
43015;DHT22;28637;50.554;7.032;2024-01-10T20:30:00;-4.60;99.90
43015;DHT22;28637;50.554;7.032;2024-01-10T20:35:00;-4.60;99.90
43015;DHT22;28637;50.554;7.032;2024-01-10T20:40:02;-4.50;99.90
43015;DHT22;28637;50.554;7.032;2024-01-10T20:45:05;-4.40;99.90
43015;DHT22;28637;50.554;7.032;2024-01-10T20:50:06;-4.50;99.90
43015;DHT22;28637;50.554;7.032;2024-01-10T20:55:07;-4.40;99.90
43015;DHT22;28637;50.554;7.032;2024-01-10T21:00:08;-4.30;99.90
43015;DHT22;28637;50.554;7.032;2024-01-10T21:05:10;-4.30;99.90
43015;DHT22;28637;50.554;7.032;2024-01-10T21:10:11;-4.20;99.90
43015;DHT22;28637;50.554;7.032;2024-01-10T21:15:12;-4.30;99.90
43015;DHT22;28637;50.554;7.032;2024-01-10T21:20:13;-4.40;99.90
43015;DHT22;28637;50.554;7.032;2024-01-10T21:25:14;-4.50;99.90
43015;DHT22;28637;50.554;7.032;2024-01-10T21:30:14;-4.50;99.90
43015;DHT22;28637;50.554;7.032;2024-01-10T21:35:15;-4.60;99.90
43015;DHT22;28637;50.554;7.032;2024-01-10T21:40:16;-4.50;99.90
43015;DHT22;28637;50.554;7.032;2024-01-10T21:45:17;-4.60;99.90
43015;DHT22;28637;50.554;7.032;2024-01-10T21:50:18;-4.60;99.90
43015;DHT22;28637;50.554;7.032;2024-01-10T21:55:18;-4.60;99.90
43015;DHT22;28637;50.554;7.032;2024-01-10T22:00:19;-4.70;99.90
43015;DHT22;28637;50.554;7.032;2024-01-10T22:05:21;-4.80;99.90
43015;DHT22;28637;50.554;7.032;2024-01-10T22:10:21;-4.70;99.90
43015;DHT22;28637;50.554;7.032;2024-01-10T22:15:22;-4.80;99.90
43015;DHT22;28637;50.554;7.032;2024-01-10T22:20:22;-4.70;99.90
43015;DHT22;28637;50.554;7.032;2024-01-10T22:25:24;-4.60;99.90
43015;DHT22;28637;50.554;7.032;2024-01-10T22:30:25;-4.50;99.90
43015;DHT22;28637;50.554;7.032;2024-01-10T22:35:26;-4.50;99.90
43015;DHT22;28637;50.554;7.032;2024-01-10T22:40:26;-4.70;99.90
43015;DHT22;28637;50.554;7.032;2024-01-10T22:45:27;-5.20;99.90
43015;DHT22;28637;50.554;7.032;2024-01-10T22:50:28;-5.20;99.90
43015;DHT22;28637;50.554;7.032;2024-01-10T22:55:28;-5.20;99.90
43015;DHT22;28637;50.554;7.032;2024-01-10T23:00:30;-5.00;99.90
43015;DHT22;28637;50.554;7.032;2024-01-10T23:05:30;-4.90;99.90
43015;DHT22;28637;50.554;7.032;2024-01-10T23:10:31;-4.90;99.90
43015;DHT22;28637;50.554;7.032;2024-01-10T23:15:31;-4.80;99.90
43015;DHT22;28637;50.554;7.032;2024-01-10T23:20:32;-4.70;99.90
43015;DHT22;28637;50.554;7.032;2024-01-10T23:25:33;-4.50;99.90
43015;DHT22;28637;50.554;7.032;2024-01-10T23:30:34;-4.70;99.90
43015;DHT22;28637;50.554;7.032;2024-01-10T23:35:34;-4.70;99.90
43015;DHT22;28637;50.554;7.032;2024-01-10T23:40:35;-4.70;99.90
43015;DHT22;28637;50.554;7.032;2024-01-10T23:45:36;-4.70;99.90
43015;DHT22;28637;50.554;7.032;2024-01-10T23:50:37;-4.80;99.90
43015;DHT22;28637;50.554;7.032;2024-01-10T23:55:37;-4.80;99.90
